createdAt,value
2022-09-14T00:01:40.555Z,70.50
2022-09-14T00:04:15.466Z,70.70
2022-09-14T00:06:43.865Z,70.70
2022-09-14T00:09:22.188Z,70.60
2022-09-14T00:11:49.488Z,71.40
2022-09-14T00:14:18.731Z,70.70
2022-09-14T00:16:46.260Z,70.80
2022-09-14T00:19:26.027Z,70.90
2022-09-14T00:21:58.694Z,71.50
2022-09-14T00:24:28.499Z,71.10
2022-09-14T00:26:55.813Z,71.20
2022-09-14T00:29:23.986Z,71.10
2022-09-14T00:31:51.532Z,71.20
2022-09-14T00:34:19.214Z,71.30
2022-09-14T00:36:50.256Z,71.40
2022-09-14T00:39:20.638Z,71.40
2022-09-14T00:41:49.994Z,71.40
2022-09-14T00:44:17.154Z,71.50
2022-09-14T00:46:50.812Z,71.60
2022-09-14T00:49:27.561Z,71.80
2022-09-14T00:52:21.007Z,71.70
2022-09-14T00:54:59.833Z,71.90
2022-09-14T00:57:31.669Z,71.70
2022-09-14T00:59:59.666Z,71.60
2022-09-14T01:02:28.498Z,71.50
2022-09-14T01:04:56.549Z,71.60
2022-09-14T01:07:53.134Z,71.50
2022-09-14T01:10:35.185Z,71.70
2022-09-14T01:13:30.218Z,71.50
2022-09-14T01:16:17.583Z,72.50
2022-09-14T01:18:51.046Z,71.70
2022-09-14T01:21:25.277Z,71.60
2022-09-14T01:24:34.203Z,71.50
2022-09-14T01:27:25.270Z,71.90
2022-09-14T01:30:12.915Z,72.40
2022-09-14T01:32:54.999Z,72.20
2022-09-14T01:35:31.907Z,72.00
2022-09-14T01:38:08.173Z,71.80
2022-09-14T01:40:41.823Z,71.30
2022-09-14T01:43:40.902Z,71.20
2022-09-14T01:46:18.734Z,72.20
2022-09-14T01:49:11.621Z,71.50
2022-09-14T01:51:48.826Z,71.90
2022-09-14T01:54:36.268Z,72.20
2022-09-14T01:57:21.928Z,72.20
2022-09-14T01:59:53.818Z,71.90
2022-09-14T02:02:50.159Z,71.80
2022-09-14T02:05:46.305Z,71.90
2022-09-14T02:08:13.539Z,72.20
2022-09-14T02:10:40.720Z,71.70
2022-09-14T02:13:09.473Z,71.80
2022-09-14T02:15:37.445Z,71.90
2022-09-14T02:18:05.544Z,71.90
2022-09-14T02:20:46.956Z,71.90
2022-09-14T02:23:14.558Z,72.30
2022-09-14T02:25:41.707Z,71.90
2022-09-14T02:28:09.255Z,72.00
2022-09-14T02:31:24.003Z,72.20
2022-09-14T02:34:38.900Z,73.50
2022-09-14T02:37:25.158Z,72.90
2022-09-14T02:40:32.150Z,72.60
2022-09-14T02:43:54.314Z,72.70
2022-09-14T02:46:43.343Z,72.90
2022-09-14T02:49:59.061Z,72.20
2022-09-14T02:52:44.708Z,72.90
2022-09-14T02:55:19.183Z,72.70
2022-09-14T02:58:09.899Z,72.20
2022-09-14T03:00:48.262Z,72.20
2022-09-14T03:03:19.520Z,72.70
2022-09-14T03:05:47.182Z,72.50
2022-09-14T03:08:14.533Z,72.70
2022-09-14T03:10:44.360Z,72.70
2022-09-14T03:13:12.514Z,72.70
2022-09-14T03:15:39.825Z,72.70
2022-09-14T03:18:13.608Z,72.90
2022-09-14T03:20:41.936Z,72.90
2022-09-14T03:23:10.966Z,72.80
2022-09-14T03:25:45.323Z,72.90
2022-09-14T03:28:13.585Z,73.40
2022-09-14T03:30:40.647Z,73.10
2022-09-14T03:33:07.854Z,73.00
2022-09-14T03:35:35.108Z,73.10
2022-09-14T03:38:03.455Z,73.20
2022-09-14T03:40:31.196Z,73.10
2022-09-14T03:42:58.636Z,73.10
2022-09-14T03:45:25.961Z,73.10
2022-09-14T03:47:53.109Z,73.00
2022-09-14T03:50:20.553Z,73.00
2022-09-14T03:52:47.931Z,73.00
2022-09-14T03:55:15.479Z,72.90
2022-09-14T03:57:42.631Z,72.80
2022-09-14T04:00:11.592Z,72.80
2022-09-14T04:02:40.090Z,72.90
2022-09-14T04:05:08.097Z,72.80
2022-09-14T04:07:35.911Z,72.80
2022-09-14T04:10:05.700Z,72.90
2022-09-14T04:12:38.271Z,73.10
2022-09-14T04:15:07.275Z,73.30
2022-09-14T04:17:34.843Z,73.10
2022-09-14T04:20:02.244Z,73.20
2022-09-14T04:22:29.278Z,73.30
2022-09-14T04:24:56.428Z,73.30
2022-09-14T04:27:23.599Z,73.30
2022-09-14T04:29:51.243Z,73.40
2022-09-14T04:32:18.315Z,73.50
2022-09-14T04:34:45.637Z,73.50
2022-09-14T04:37:12.640Z,73.50
2022-09-14T04:39:39.853Z,73.60
2022-09-14T04:42:07.512Z,73.60
2022-09-14T04:44:34.640Z,73.70
2022-09-14T04:47:02.271Z,73.70
2022-09-14T04:49:29.483Z,73.70
2022-09-14T04:51:56.532Z,73.70
2022-09-14T04:54:23.770Z,73.80
2022-09-14T04:56:50.775Z,73.70
2022-09-14T04:59:18.144Z,73.60
2022-09-14T05:01:50.296Z,73.60
2022-09-14T05:04:18.080Z,73.70
2022-09-14T05:06:45.881Z,73.70
2022-09-14T05:09:18.361Z,73.70
2022-09-14T05:11:46.251Z,73.90
2022-09-14T05:14:14.714Z,73.80
2022-09-14T05:16:43.768Z,73.90
2022-09-14T05:19:18.246Z,73.90
2022-09-14T05:21:46.087Z,74.10
2022-09-14T05:24:18.365Z,73.90
2022-09-14T05:26:47.000Z,73.90
2022-09-14T05:29:18.012Z,74.00
2022-09-14T05:31:46.039Z,74.10
2022-09-14T05:34:13.882Z,74.10
2022-09-14T05:36:41.913Z,74.10
2022-09-14T05:39:10.132Z,74.10
2022-09-14T05:41:37.765Z,74.20
2022-09-14T05:44:05.896Z,74.30
2022-09-14T05:46:33.670Z,74.30
2022-09-14T05:49:00.904Z,74.30
2022-09-14T05:51:28.810Z,74.30
2022-09-14T05:53:58.575Z,74.30
2022-09-14T05:56:28.857Z,74.50
2022-09-14T05:58:56.612Z,74.50
2022-09-14T06:01:27.426Z,74.40
2022-09-14T06:03:57.991Z,74.70
2022-09-14T06:06:25.393Z,74.40
2022-09-14T06:08:55.303Z,74.60
2022-09-14T06:11:28.544Z,74.60
2022-09-14T06:13:56.588Z,74.80
2022-09-14T06:16:26.432Z,74.80
2022-09-14T06:18:56.409Z,74.80
2022-09-14T06:21:31.230Z,74.80
2022-09-14T06:23:58.783Z,75.00
2022-09-14T06:26:26.434Z,75.20
2022-09-14T06:28:53.609Z,75.20
2022-09-14T06:31:22.697Z,75.30
2022-09-14T06:33:51.943Z,75.50
2022-09-14T06:36:22.748Z,75.60
2022-09-14T06:38:51.006Z,75.60
2022-09-14T06:41:26.483Z,75.60
2022-09-14T06:43:56.855Z,75.70
2022-09-14T06:46:31.451Z,75.50
2022-09-14T06:49:08.170Z,75.60
2022-09-14T06:51:44.814Z,75.80
2022-09-14T06:54:13.632Z,75.90
2022-09-14T06:56:43.497Z,75.70
2022-09-14T06:59:14.014Z,75.70
2022-09-14T07:01:41.931Z,75.80
2022-09-14T07:04:09.594Z,75.70
2022-09-14T07:06:48.470Z,75.70
2022-09-14T07:09:17.259Z,76.10
2022-09-14T07:11:45.656Z,75.60
2022-09-14T07:14:13.101Z,75.70
2022-09-14T07:16:41.209Z,75.80
2022-09-14T07:19:12.674Z,75.80
2022-09-14T07:21:40.654Z,75.90
2022-09-14T07:24:08.115Z,75.90
2022-09-14T07:26:40.188Z,76.00
2022-09-14T07:29:16.992Z,75.90
2022-09-14T07:31:49.450Z,75.80
2022-09-14T07:34:17.655Z,75.60
2022-09-14T07:36:44.906Z,75.80
2022-09-14T07:39:17.079Z,75.80
2022-09-14T07:41:44.857Z,76.10
2022-09-14T07:44:15.897Z,75.90
2022-09-14T07:46:45.100Z,75.90
2022-09-14T07:49:13.270Z,75.80
2022-09-14T07:51:40.881Z,75.80
2022-09-14T07:54:12.441Z,75.70
2022-09-14T07:56:40.579Z,75.60
2022-09-14T07:59:31.299Z,75.30
2022-09-14T08:01:55.095Z,75.20
2022-09-14T08:04:22.394Z,75.20
2022-09-14T08:06:49.386Z,75.10
2022-09-14T08:09:16.675Z,75.10
2022-09-14T08:11:43.716Z,75.00
2022-09-14T08:14:12.957Z,75.00
2022-09-14T08:16:41.044Z,75.00
2022-09-14T08:19:16.952Z,75.00
2022-09-14T08:21:47.285Z,75.10
2022-09-14T08:24:18.459Z,74.90
2022-09-14T08:26:46.767Z,75.00
2022-09-14T08:29:16.212Z,75.10
2022-09-14T08:31:45.673Z,75.10
2022-09-14T08:34:15.117Z,75.00
2022-09-14T08:36:44.476Z,75.00
2022-09-14T08:39:14.472Z,74.90
2022-09-14T08:41:53.479Z,74.90
2022-09-14T08:44:41.622Z,75.10
2022-09-14T08:47:19.852Z,75.20
2022-09-14T08:50:19.010Z,75.30
2022-09-14T08:52:55.572Z,75.20
2022-09-14T08:56:11.184Z,75.20
2022-09-14T08:59:01.464Z,75.00
2022-09-14T09:02:05.838Z,74.80
2022-09-14T09:04:50.191Z,74.70
2022-09-14T09:07:39.410Z,74.90
2022-09-14T09:10:10.174Z,75.00
2022-09-14T09:12:53.858Z,74.70
2022-09-14T09:15:47.499Z,74.60
2022-09-14T09:18:37.529Z,74.50
2022-09-14T09:21:20.532Z,74.70
2022-09-14T09:23:47.657Z,74.50
2022-09-14T09:26:29.538Z,74.80
2022-09-14T09:29:03.183Z,74.40
2022-09-14T09:31:39.865Z,74.50
2022-09-14T09:34:07.154Z,74.70
2022-09-14T09:36:41.358Z,74.70
2022-09-14T09:39:08.993Z,74.60
2022-09-14T09:42:01.200Z,74.40
2022-09-14T09:44:28.259Z,73.50
2022-09-14T09:47:00.218Z,73.30
2022-09-14T09:49:38.995Z,73.50
2022-09-14T09:52:15.835Z,73.10
2022-09-14T09:54:50.832Z,73.00
2022-09-14T09:57:30.194Z,73.10
2022-09-14T10:00:26.326Z,72.40
2022-09-14T10:02:55.168Z,72.40
2022-09-14T10:05:31.730Z,72.90
2022-09-14T10:08:01.454Z,72.50
2022-09-14T10:10:34.612Z,72.80
2022-09-14T10:13:05.083Z,72.40
2022-09-14T10:15:36.632Z,72.50
2022-09-14T10:18:17.815Z,72.90
2022-09-14T10:20:53.080Z,72.40
2022-09-14T10:23:20.340Z,72.60
2022-09-14T10:26:14.013Z,72.50
2022-09-14T10:28:47.882Z,72.30
2022-09-14T10:31:20.978Z,72.00
2022-09-14T10:33:54.112Z,71.10
2022-09-14T10:36:31.057Z,71.10
2022-09-14T10:39:21.168Z,70.90
2022-09-14T10:42:06.278Z,69.80
2022-09-14T10:44:54.892Z,69.90
2022-09-14T10:47:39.415Z,69.20
2022-09-14T10:50:28.499Z,66.90
2022-09-14T10:53:28.688Z,66.80
2022-09-14T10:56:23.519Z,65.10
2022-09-14T10:59:08.274Z,64.30
2022-09-14T11:02:55.927Z,66.40
2022-09-14T11:05:38.763Z,62.30
2022-09-14T11:08:37.923Z,64.20
2022-09-14T11:11:22.947Z,64.20
2022-09-14T11:14:25.150Z,64.70
2022-09-14T11:17:04.007Z,64.20
2022-09-14T11:19:47.882Z,64.50
2022-09-14T11:22:48.101Z,64.30
2022-09-14T11:25:52.627Z,64.40
2022-09-14T11:28:46.686Z,62.50
2022-09-14T11:32:10.308Z,63.10
2022-09-14T11:34:47.740Z,62.80
2022-09-14T11:37:19.573Z,63.20
2022-09-14T11:40:14.028Z,63.90
2022-09-14T11:43:03.086Z,63.90
2022-09-14T11:45:49.232Z,63.70
2022-09-14T11:48:48.986Z,63.20
2022-09-14T11:51:24.153Z,63.40
2022-09-14T11:53:51.532Z,63.10
2022-09-14T11:56:33.339Z,63.00
2022-09-14T11:59:04.306Z,59.70
2022-09-14T12:01:37.342Z,59.80
2022-09-14T12:04:18.425Z,61.80
2022-09-14T12:06:49.708Z,58.70
2022-09-14T12:09:17.204Z,61.00
2022-09-14T12:11:45.631Z,61.20
2022-09-14T12:14:36.659Z,61.20
2022-09-14T12:17:22.571Z,61.50
2022-09-14T12:19:56.861Z,61.60
2022-09-14T12:22:35.787Z,61.40
2022-09-14T12:25:25.626Z,60.50
2022-09-14T12:27:52.698Z,60.40
2022-09-14T12:30:41.658Z,61.60
2022-09-14T12:33:33.524Z,60.10
2022-09-14T12:36:05.215Z,59.30
2022-09-14T12:38:32.246Z,60.20
2022-09-14T12:41:11.374Z,61.80
2022-09-14T12:43:41.511Z,59.20
2022-09-14T12:46:10.492Z,60.80
2022-09-14T12:48:51.168Z,60.40
2022-09-14T12:51:47.587Z,59.60
2022-09-14T12:54:51.484Z,58.00
2022-09-14T12:57:46.894Z,59.40
2022-09-14T13:00:18.850Z,59.90
2022-09-14T13:03:39.472Z,60.20
2022-09-14T13:06:13.169Z,60.50
2022-09-14T13:08:46.070Z,60.40
2022-09-14T13:11:33.262Z,60.20
2022-09-14T13:14:01.247Z,59.80
2022-09-14T13:16:39.872Z,60.40
2022-09-14T13:19:28.230Z,60.20
2022-09-14T13:21:59.290Z,59.40
2022-09-14T13:24:31.274Z,60.20
2022-09-14T13:27:01.366Z,59.80
2022-09-14T13:29:28.937Z,60.00
2022-09-14T13:32:03.091Z,60.20
2022-09-14T13:34:35.272Z,60.40
2022-09-14T13:37:03.373Z,60.10
2022-09-14T13:39:38.384Z,60.30
2022-09-14T13:42:06.810Z,60.20
2022-09-14T13:44:45.410Z,60.30
2022-09-14T13:47:19.553Z,60.00
2022-09-14T13:49:48.795Z,60.30
2022-09-14T13:52:43.014Z,60.50
2022-09-14T13:55:25.083Z,60.00
2022-09-14T13:58:23.966Z,60.20
2022-09-14T14:00:59.737Z,60.20
2022-09-14T14:03:31.853Z,60.70
2022-09-14T14:06:00.078Z,60.60
2022-09-14T14:08:32.791Z,60.70
2022-09-14T14:11:02.884Z,60.60
2022-09-14T14:13:33.873Z,60.60
2022-09-14T14:16:22.977Z,60.60
2022-09-14T14:18:58.287Z,60.20
2022-09-14T14:21:28.242Z,60.30
2022-09-14T14:24:23.470Z,60.50
2022-09-14T14:26:53.754Z,60.00
2022-09-14T14:29:21.735Z,60.60
2022-09-14T14:31:49.605Z,60.80
2022-09-14T14:34:29.297Z,60.80
2022-09-14T14:36:56.704Z,60.70
2022-09-14T14:39:25.793Z,61.00
2022-09-14T14:41:53.764Z,61.10
2022-09-14T14:44:28.358Z,61.10
2022-09-14T14:46:56.631Z,61.00
2022-09-14T14:49:24.007Z,61.10
2022-09-14T14:51:51.513Z,61.30
2022-09-14T14:54:19.002Z,61.40
2022-09-14T14:56:51.452Z,61.30
2022-09-14T14:59:21.447Z,61.00
2022-09-14T15:01:52.114Z,61.10
2022-09-14T15:04:20.075Z,61.00
2022-09-14T15:06:47.971Z,60.90
2022-09-14T15:09:29.270Z,61.00
2022-09-14T15:11:56.614Z,61.10
2022-09-14T15:14:28.490Z,61.20
2022-09-14T15:17:00.087Z,61.20
2022-09-14T15:19:28.456Z,61.30
2022-09-14T15:22:00.740Z,61.30
2022-09-14T15:24:29.058Z,61.30
2022-09-14T15:26:56.302Z,61.30
2022-09-14T15:29:23.494Z,61.20
2022-09-14T15:31:50.632Z,61.30
2022-09-14T15:34:17.836Z,61.30
2022-09-14T15:36:51.140Z,61.40
2022-09-14T15:39:27.465Z,61.30
2022-09-14T15:41:56.015Z,61.50
2022-09-14T15:44:23.686Z,61.70
2022-09-14T15:46:51.093Z,61.90
2022-09-14T15:49:24.665Z,62.10
2022-09-14T15:51:54.879Z,62.10
2022-09-14T15:54:25.874Z,62.10
2022-09-14T15:56:56.649Z,62.10
2022-09-14T15:59:23.804Z,62.10
2022-09-14T16:01:51.137Z,62.20
2022-09-14T16:04:19.128Z,62.30
2022-09-14T16:06:46.888Z,62.40
2022-09-14T16:09:16.641Z,62.40
2022-09-14T16:11:44.235Z,62.40
2022-09-14T16:14:11.852Z,62.40
2022-09-14T16:16:39.528Z,62.30
2022-09-14T16:19:16.135Z,62.40
2022-09-14T16:21:43.613Z,62.60
2022-09-14T16:24:18.229Z,62.50
2022-09-14T16:26:46.404Z,62.50
2022-09-14T16:29:16.109Z,62.10
2022-09-14T16:31:45.606Z,61.70
2022-09-14T16:34:20.199Z,61.50
2022-09-14T16:36:48.833Z,60.90
2022-09-14T16:39:25.570Z,61.20
2022-09-14T16:41:56.779Z,61.10
2022-09-14T16:44:26.145Z,61.70
2022-09-14T16:46:55.432Z,62.20
2022-09-14T16:49:27.268Z,62.70
2022-09-14T16:51:56.562Z,63.00
2022-09-14T16:54:26.254Z,62.60
2022-09-14T16:56:58.275Z,62.40
2022-09-14T16:59:26.733Z,62.70
2022-09-14T17:01:55.419Z,63.00
2022-09-14T17:04:24.416Z,63.40
2022-09-14T17:06:53.055Z,63.90
2022-09-14T17:09:27.013Z,64.30
2022-09-14T17:11:56.491Z,64.80
2022-09-14T17:14:30.552Z,65.20
2022-09-14T17:16:58.776Z,65.80
2022-09-14T17:19:27.110Z,65.90
2022-09-14T17:21:54.655Z,66.20
2022-09-14T17:24:22.289Z,66.60
2022-09-14T17:26:50.140Z,66.80
2022-09-14T17:29:17.677Z,67.30
2022-09-14T17:31:46.155Z,67.30
2022-09-14T17:34:16.688Z,67.60
2022-09-14T17:36:44.982Z,67.80
2022-09-14T17:39:14.051Z,68.00
2022-09-14T17:41:43.059Z,68.30
2022-09-14T17:44:13.459Z,68.40
2022-09-14T17:46:50.820Z,68.60
2022-09-14T17:49:21.973Z,68.80
2022-09-14T17:51:50.142Z,69.10
2022-09-14T17:54:19.619Z,69.00
2022-09-14T17:56:47.048Z,69.10
2022-09-14T17:59:20.378Z,69.10
2022-09-14T18:01:49.186Z,69.30
2022-09-14T18:04:17.114Z,69.30
2022-09-14T18:06:47.917Z,69.40
2022-09-14T18:09:22.403Z,69.50
2022-09-14T18:11:50.839Z,70.00
2022-09-14T18:14:18.449Z,69.60
2022-09-14T18:16:45.953Z,69.80
2022-09-14T18:19:13.827Z,69.90
2022-09-14T18:21:41.853Z,70.10
2022-09-14T18:24:11.783Z,70.10
2022-09-14T18:26:38.889Z,70.20
2022-09-14T18:29:06.013Z,70.20
2022-09-14T18:31:33.563Z,70.10
2022-09-14T18:34:01.127Z,70.30
2022-09-14T18:36:29.965Z,70.30
2022-09-14T18:38:58.743Z,70.30
2022-09-14T18:41:29.174Z,70.40
2022-09-14T18:43:56.339Z,70.40
2022-09-14T18:46:27.823Z,70.50
2022-09-14T18:48:57.091Z,70.50
2022-09-14T18:51:25.397Z,71.00
2022-09-14T18:54:04.832Z,70.00
2022-09-14T18:56:34.118Z,70.80
2022-09-14T18:59:03.488Z,70.40
2022-09-14T19:01:30.849Z,70.40
2022-09-14T19:03:58.263Z,70.50
2022-09-14T19:06:25.399Z,70.50
2022-09-14T19:08:52.763Z,70.50
2022-09-14T19:11:23.411Z,70.40
2022-09-14T19:14:00.396Z,70.50
2022-09-14T19:16:30.752Z,70.80
2022-09-14T19:18:58.671Z,70.50
2022-09-14T19:21:29.584Z,70.50
2022-09-14T19:24:08.512Z,70.50
2022-09-14T19:26:45.306Z,70.60
2022-09-14T19:29:15.497Z,70.60
2022-09-14T19:31:42.822Z,70.60
2022-09-14T19:34:11.040Z,70.60
2022-09-14T19:36:38.148Z,70.80
2022-09-14T19:39:06.396Z,70.80
2022-09-14T19:41:34.808Z,70.80
2022-09-14T19:44:03.202Z,70.80
2022-09-14T19:46:31.404Z,70.90
2022-09-14T19:48:59.418Z,70.90
2022-09-14T19:51:29.140Z,70.90
2022-09-14T19:53:59.569Z,70.90
2022-09-14T19:56:30.122Z,70.80
2022-09-14T19:59:00.093Z,70.80
2022-09-14T20:01:30.875Z,70.90
2022-09-14T20:03:58.296Z,71.00
2022-09-14T20:06:31.881Z,71.10
2022-09-14T20:09:06.478Z,71.40
2022-09-14T20:11:36.038Z,71.50
2022-09-14T20:14:06.504Z,71.50
2022-09-14T20:16:43.694Z,71.50
2022-09-14T20:19:16.109Z,71.50
2022-09-14T20:21:45.194Z,71.50
2022-09-14T20:24:18.215Z,71.50
2022-09-14T20:26:50.560Z,71.50
2022-09-14T20:29:19.794Z,71.80
2022-09-14T20:31:48.113Z,71.70
2022-09-14T20:34:18.281Z,71.80
2022-09-14T20:36:45.696Z,71.80
2022-09-14T20:39:12.976Z,71.80
2022-09-14T20:41:41.182Z,72.00
2022-09-14T20:44:08.744Z,72.10
2022-09-14T20:46:42.705Z,72.20
2022-09-14T20:49:17.071Z,72.80
2022-09-14T20:51:44.875Z,72.90
2022-09-14T20:54:15.939Z,72.80
2022-09-14T20:56:44.097Z,73.00
2022-09-14T20:59:15.598Z,72.90
2022-09-14T21:01:45.929Z,73.20
2022-09-14T21:04:17.280Z,73.20
2022-09-14T21:06:48.462Z,73.20
2022-09-14T21:09:18.275Z,73.10
2022-09-14T21:11:46.579Z,73.00
2022-09-14T21:14:16.378Z,73.10
2022-09-14T21:16:46.955Z,73.20
2022-09-14T21:19:22.240Z,73.20
2022-09-14T21:21:50.657Z,73.30
2022-09-14T21:24:19.875Z,73.20
2022-09-14T21:26:47.711Z,73.20
2022-09-14T21:29:20.815Z,73.30
2022-09-14T21:31:48.892Z,73.40
2022-09-14T21:34:16.742Z,73.30
2022-09-14T21:36:48.534Z,73.40
2022-09-14T21:39:21.640Z,73.50
2022-09-14T21:41:54.460Z,73.50
2022-09-14T21:44:23.343Z,73.40
2022-09-14T21:46:50.453Z,73.30
2022-09-14T21:49:21.924Z,73.20
2022-09-14T21:51:49.529Z,73.20
2022-09-14T21:54:17.396Z,73.20
2022-09-14T21:56:46.718Z,73.30
2022-09-14T21:59:20.414Z,73.40
2022-09-14T22:01:48.437Z,73.40
2022-09-14T22:04:19.710Z,73.40
2022-09-14T22:06:48.232Z,73.60
2022-09-14T22:09:20.272Z,73.50
2022-09-14T22:11:47.395Z,73.60
2022-09-14T22:14:18.609Z,73.60
2022-09-14T22:16:46.677Z,73.70
2022-09-14T22:19:26.838Z,73.60
2022-09-14T22:21:55.005Z,73.80
2022-09-14T22:24:36.420Z,73.60
2022-09-14T22:27:10.085Z,73.90
2022-09-14T22:29:40.683Z,73.70
2022-09-14T22:32:10.292Z,73.70
2022-09-14T22:34:49.354Z,73.70
2022-09-14T22:37:16.831Z,73.80
2022-09-14T22:39:44.016Z,73.70
2022-09-14T22:42:11.130Z,73.80
2022-09-14T22:44:38.390Z,73.80
2022-09-14T22:47:05.596Z,73.90
2022-09-14T22:49:32.765Z,73.90
2022-09-14T22:51:59.836Z,73.90
2022-09-14T22:54:26.973Z,73.90
2022-09-14T22:56:54.213Z,73.90
2022-09-14T22:59:21.252Z,74.10
2022-09-14T23:01:48.467Z,74.10
2022-09-14T23:04:15.693Z,74.20
2022-09-14T23:06:47.411Z,74.40
2022-09-14T23:09:19.300Z,74.50
2022-09-14T23:11:46.659Z,74.50
2022-09-14T23:14:15.730Z,74.50
2022-09-14T23:16:45.192Z,74.50
2022-09-14T23:19:17.940Z,74.60
2022-09-14T23:21:45.575Z,74.70
2022-09-14T23:24:13.521Z,74.70
2022-09-14T23:26:40.689Z,74.70
2022-09-14T23:29:17.056Z,74.80
2022-09-14T23:31:44.896Z,74.90
2022-09-14T23:34:12.082Z,75.10
2022-09-14T23:36:39.432Z,75.20
2022-09-14T23:39:06.632Z,75.10
2022-09-14T23:41:33.757Z,75.20
2022-09-14T23:44:01.052Z,75.20
2022-09-14T23:46:28.270Z,75.20
2022-09-14T23:48:55.521Z,75.30
2022-09-14T23:51:22.584Z,75.30
2022-09-14T23:53:49.942Z,75.20
2022-09-14T23:56:17.449Z,75.20
2022-09-14T23:58:45.586Z,75.20
